Time,TemperatureF,DewpointF,PressureIn,WindDirection,WindDirectionDegrees,WindSpeedMPH,WindSpeedGustMPH,Humidity,HourlyPrecipIn,Conditions,Clouds,dailyrainin,SolarRadiationWatts/m^2,SoftwareType,DateUTC
2013-02-16 00:00:00,65.5,56.6,25.94,ESE,121,0.0,1.0,73,0.00,,,0.00,0,Wunderground v.1.15,2013-02-16 06:00:00,
2013-02-16 00:10:00,65.4,56.5,25.93,ESE,121,1.0,1.0,73,0.00,,,0.00,0,Wunderground v.1.15,2013-02-16 06:10:00,
2013-02-16 00:15:00,65.5,56.6,25.93,ESE,121,0.0,1.0,73,0.00,,,0.00,0,Wunderground v.1.15,2013-02-16 06:15:00,
2013-02-16 00:25:00,65.5,57.0,25.93,ESE,121,0.0,0.0,74,0.00,,,0.00,0,Wunderground v.1.15,2013-02-16 06:25:00,
2013-02-16 00:35:00,65.5,57.7,25.93,SSE,148,2.0,5.0,76,0.00,,,0.00,0,Wunderground v.1.15,2013-02-16 06:35:00,
2013-02-16 00:45:00,65.5,57.7,25.93,East,85,1.0,2.0,76,0.00,,,0.00,0,Wunderground v.1.15,2013-02-16 06:45:00,
2013-02-16 00:55:00,65.2,57.4,25.92,NW,309,0.0,2.0,76,0.00,,,0.00,0,Wunderground v.1.15,2013-02-16 06:55:00,
2013-02-16 01:00:00,64.9,54.9,25.92,NW,321,1.0,1.0,70,0.00,,,0.00,0,Wunderground v.1.15,2013-02-16 07:00:00,
2013-02-16 01:10:00,64.7,53.9,25.92,NNE,33,1.0,1.0,68,0.00,,,0.00,0,Wunderground v.1.15,2013-02-16 07:10:00,
2013-02-16 01:20:00,64.7,54.3,25.92,NNE,24,0.0,0.0,69,0.00,,,0.00,0,Wunderground v.1.15,2013-02-16 07:20:00,
2013-02-16 01:30:00,64.6,55.0,25.92,NNE,29,1.0,1.0,71,0.00,,,0.00,0,Wunderground v.1.15,2013-02-16 07:30:00,
2013-02-16 01:35:00,64.4,54.4,25.92,NE,49,1.0,1.0,70,0.00,,,0.00,0,Wunderground v.1.15,2013-02-16 07:35:00,
2013-02-16 01:45:00,64.2,54.2,25.91,NNE,30,1.0,1.0,70,0.00,,,0.00,0,Wunderground v.1.15,2013-02-16 07:45:00,
2013-02-16 01:50:00,64.1,54.1,25.91,NNE,30,0.0,0.0,70,0.00,,,0.00,0,Wunderground v.1.15,2013-02-16 07:50:00,
2013-02-16 02:00:00,63.9,54.7,25.91,NNE,30,0.0,0.0,72,0.00,,,0.00,0,Wunderground v.1.15,2013-02-16 08:00:00,
2013-02-16 02:10:00,63.4,55.0,25.91,NNE,30,0.0,0.0,74,0.00,,,0.00,0,Wunderground v.1.15,2013-02-16 08:10:00,
2013-02-16 02:20:00,63.4,55.7,25.91,East,95,1.0,4.0,76,0.00,,,0.00,0,Wunderground v.1.15,2013-02-16 08:20:00,
2013-02-16 02:30:00,63.4,55.7,25.91,NE,42,3.0,3.0,76,0.00,,,0.00,0,Wunderground v.1.15,2013-02-16 08:30:00,
2013-02-16 02:40:00,63.3,56.0,25.91,ESE,103,1.0,1.0,77,0.00,,,0.00,0,Wunderground v.1.15,2013-02-16 08:40:00,
2013-02-16 02:45:00,63.3,56.0,25.91,ESE,105,1.0,1.0,77,0.00,,,0.00,0,Wunderground v.1.15,2013-02-16 08:45:00,
2013-02-16 02:55:00,63.3,55.6,25.91,SSE,148,4.0,6.0,76,0.00,,,0.00,0,Wunderground v.1.15,2013-02-16 08:55:00,
2013-02-16 03:05:00,63.1,55.4,25.91,SSE,149,2.0,3.0,76,0.00,,,0.00,0,Wunderground v.1.15,2013-02-16 09:05:00,
2013-02-16 03:10:00,63.1,55.8,25.91,ESE,111,1.0,1.0,77,0.00,,,0.00,0,Wunderground v.1.15,2013-02-16 09:10:00,
2013-02-16 03:20:00,63.0,55.7,25.91,SE,134,2.0,4.0,77,0.00,,,0.00,0,Wunderground v.1.15,2013-02-16 09:20:00,
2013-02-16 03:30:00,62.8,55.8,25.91,SSE,150,2.0,2.0,78,0.00,,,0.00,0,Wunderground v.1.15,2013-02-16 09:30:00,
2013-02-16 03:40:00,62.8,55.8,25.91,SSE,152,2.0,2.0,78,0.00,,,0.00,0,Wunderground v.1.15,2013-02-16 09:40:00,
2013-02-16 03:45:00,62.6,55.6,25.91,ENE,76,1.0,2.0,78,0.00,,,0.00,0,Wunderground v.1.15,2013-02-16 09:45:00,
2013-02-16 03:55:00,62.5,55.2,25.91,SSE,155,2.0,4.0,77,0.00,,,0.00,0,Wunderground v.1.15,2013-02-16 09:55:00,
2013-02-16 04:05:00,62.5,55.2,25.91,SE,131,2.0,4.0,77,0.00,,,0.00,0,Wunderground v.1.15,2013-02-16 10:05:00,
2013-02-16 04:10:00,62.5,54.8,25.91,SSE,157,2.0,4.0,76,0.00,,,0.00,0,Wunderground v.1.15,2013-02-16 10:10:00,
2013-02-16 04:20:00,62.6,54.9,25.91,SSE,148,4.0,6.0,76,0.00,,,0.00,0,Wunderground v.1.15,2013-02-16 10:20:00,
2013-02-16 04:30:00,62.5,54.8,25.91,East,81,3.0,3.0,76,0.00,,,0.00,0,Wunderground v.1.15,2013-02-16 10:30:00,
2013-02-16 04:40:00,62.3,54.6,25.92,SE,140,1.0,2.0,76,0.00,,,0.00,0,Wunderground v.1.15,2013-02-16 10:40:00,
2013-02-16 04:45:00,62.5,54.8,25.92,SE,130,2.0,2.0,76,0.00,,,0.00,0,Wunderground v.1.15,2013-02-16 10:45:00,
2013-02-16 04:50:00,62.5,54.8,25.92,SE,133,3.0,4.0,76,0.00,,,0.00,0,Wunderground v.1.15,2013-02-16 10:50:00,
2013-02-16 05:00:00,62.5,55.2,25.92,East,88,2.0,2.0,77,0.00,,,0.00,0,Wunderground v.1.15,2013-02-16 11:00:00,
2013-02-16 05:05:00,62.5,55.2,25.92,East,84,1.0,2.0,77,0.00,,,0.00,0,Wunderground v.1.15,2013-02-16 11:05:00,
2013-02-16 05:15:00,62.5,55.5,25.93,East,96,2.0,3.0,78,0.00,,,0.00,0,Wunderground v.1.15,2013-02-16 11:15:00,
2013-02-16 05:20:00,62.5,55.5,25.93,ESE,122,2.0,2.0,78,0.00,,,0.00,0,Wunderground v.1.15,2013-02-16 11:20:00,
2013-02-16 05:30:00,62.3,55.4,25.93,SE,136,2.0,2.0,78,0.00,,,0.00,0,Wunderground v.1.15,2013-02-16 11:30:00,
2013-02-16 05:40:00,62.6,54.9,25.93,SSE,156,3.0,3.0,76,0.00,,,0.00,0,Wunderground v.1.15,2013-02-16 11:40:00,
2013-02-16 05:45:00,62.8,55.1,25.93,SSE,152,2.0,3.0,76,0.00,,,0.00,0,Wunderground v.1.15,2013-02-16 11:45:00,
2013-02-16 05:55:00,62.8,54.8,25.94,ENE,77,1.0,2.0,75,0.00,,,0.00,0,Wunderground v.1.15,2013-02-16 11:55:00,
2013-02-16 06:05:00,62.6,54.6,25.94,ESE,103,0.0,1.0,75,0.00,,,0.00,9,Wunderground v.1.15,2013-02-16 12:05:00,
2013-02-16 06:15:00,62.2,54.5,25.95,East,101,0.0,0.0,76,0.00,,,0.00,16,Wunderground v.1.15,2013-02-16 12:15:00,
2013-02-16 06:25:00,61.9,54.2,25.95,ESE,119,1.0,1.0,76,0.00,,,0.00,26,Wunderground v.1.15,2013-02-16 12:25:00,
2013-02-16 06:30:00,62.0,54.3,25.95,ENE,76,1.0,1.0,76,0.00,,,0.00,53,Wunderground v.1.15,2013-02-16 12:30:00,
2013-02-16 06:40:00,63.0,55.3,25.96,South,175,2.0,2.0,76,0.00,,,0.00,30,Wunderground v.1.15,2013-02-16 12:40:00,
2013-02-16 06:45:00,63.3,54.9,25.96,SSE,155,2.0,4.0,74,0.00,,,0.00,33,Wunderground v.1.15,2013-02-16 12:45:00,
2013-02-16 06:55:00,64.1,54.5,25.96,SSE,147,3.0,3.0,71,0.00,,,0.00,65,Wunderground v.1.15,2013-02-16 12:55:00,
2013-02-16 07:05:00,64.9,54.1,25.97,SE,134,3.0,6.0,68,0.00,,,0.00,200,Wunderground v.1.15,2013-02-16 13:05:00,
2013-02-16 07:15:00,65.9,53.8,25.97,East,88,2.0,3.0,65,0.00,,,0.00,244,Wunderground v.1.15,2013-02-16 13:15:00,
2013-02-16 07:25:00,66.8,52.5,25.97,ESE,109,1.0,2.0,60,0.00,,,0.00,287,Wunderground v.1.15,2013-02-16 13:25:00,
2013-02-16 07:30:00,67.5,51.2,25.97,ESE,116,1.0,6.0,56,0.00,,,0.00,295,Wunderground v.1.15,2013-02-16 13:30:00,
2013-02-16 07:35:00,68.0,47.6,25.97,East,80,2.0,6.0,48,0.00,,,0.00,264,Wunderground v.1.15,2013-02-16 13:35:00,
2013-02-16 07:45:00,68.8,47.2,25.97,SE,140,2.0,2.0,46,0.00,,,0.00,359,Wunderground v.1.15,2013-02-16 13:45:00,
2013-02-16 07:55:00,69.8,48.1,25.98,East,80,2.0,4.0,46,0.00,,,0.00,396,Wunderground v.1.15,2013-02-16 13:55:00,
2013-02-16 08:00:00,70.2,46.6,25.98,ESE,119,3.0,5.0,43,0.00,,,0.00,413,Wunderground v.1.15,2013-02-16 14:00:00,
2013-02-16 08:10:00,71.0,47.4,25.98,ENE,72,4.0,4.0,43,0.00,,,0.00,441,Wunderground v.1.15,2013-02-16 14:10:00,
2013-02-16 08:15:00,71.2,49.4,25.98,East,80,3.0,4.0,46,0.00,,,0.00,462,Wunderground v.1.15,2013-02-16 14:15:00,
2013-02-16 08:25:00,71.5,43.1,25.98,ENE,71,2.0,3.0,36,0.00,,,0.00,499,Wunderground v.1.15,2013-02-16 14:25:00,
2013-02-16 08:30:00,71.5,40.9,25.98,SE,144,2.0,2.0,33,0.00,,,0.00,522,Wunderground v.1.15,2013-02-16 14:30:00,
2013-02-16 08:40:00,72.4,41.7,25.98,NW,323,2.0,2.0,33,0.00,,,0.00,550,Wunderground v.1.15,2013-02-16 14:40:00,
2013-02-16 08:50:00,73.1,43.1,25.99,SSE,148,2.0,4.0,34,0.00,,,0.00,582,Wunderground v.1.15,2013-02-16 14:50:00,
2013-02-16 08:55:00,73.9,42.2,25.99,SSW,205,2.0,4.0,32,0.00,,,0.00,599,Wunderground v.1.15,2013-02-16 14:55:00,
2013-02-16 09:05:00,75.2,43.3,25.98,WNW,292,2.0,5.0,32,0.00,,,0.00,628,Wunderground v.1.15,2013-02-16 15:05:00,
2013-02-16 09:15:00,75.5,41.0,25.98,NNW,332,2.0,3.0,29,0.00,,,0.00,659,Wunderground v.1.15,2013-02-16 15:15:00,
2013-02-16 09:20:00,75.2,41.6,25.98,East,94,2.0,2.0,30,0.00,,,0.00,675,Wunderground v.1.15,2013-02-16 15:20:00,
2013-02-16 09:25:00,75.7,41.2,25.98,ESE,114,3.0,4.0,29,0.00,,,0.00,689,Wunderground v.1.15,2013-02-16 15:25:00,
2013-02-16 09:30:00,76.0,41.4,25.99,SSE,155,3.0,5.0,29,0.00,,,0.00,707,Wunderground v.1.15,2013-02-16 15:30:00,
2013-02-16 09:40:00,75.9,40.4,25.98,SSE,163,3.0,3.0,28,0.00,,,0.00,729,Wunderground v.1.15,2013-02-16 15:40:00,
2013-02-16 09:50:00,76.4,39.9,25.98,South,190,3.0,3.0,27,0.00,,,0.00,752,Wunderground v.1.15,2013-02-16 15:50:00,
2013-02-16 10:00:00,76.2,43.3,25.98,ENE,64,3.0,5.0,31,0.00,,,0.00,770,Wunderground v.1.15,2013-02-16 16:00:00,
2013-02-16 10:05:00,76.0,42.3,25.98,ESE,119,4.0,5.0,30,0.00,,,0.00,782,Wunderground v.1.15,2013-02-16 16:05:00,
2013-02-16 10:15:00,76.9,44.0,25.98,North,360,4.0,5.0,31,0.00,,,0.00,800,Wunderground v.1.15,2013-02-16 16:15:00,
2013-02-16 10:25:00,75.9,44.7,25.98,East,84,4.0,4.0,33,0.00,,,0.00,817,Wunderground v.1.15,2013-02-16 16:25:00,
2013-02-16 10:35:00,76.6,46.9,25.98,NE,52,3.0,4.0,35,0.00,,,0.00,831,Wunderground v.1.15,2013-02-16 16:35:00,
2013-02-16 10:45:00,75.7,49.7,25.97,NW,312,5.0,8.0,40,0.00,,,0.00,847,Wunderground v.1.15,2013-02-16 16:45:00,
2013-02-16 10:55:00,75.2,51.2,25.97,WNW,288,6.0,9.0,43,0.00,,,0.00,858,Wunderground v.1.15,2013-02-16 16:55:00,
2013-02-16 11:05:00,75.2,51.2,25.96,ESE,118,5.0,6.0,43,0.00,,,0.00,863,Wunderground v.1.15,2013-02-16 17:05:00,
2013-02-16 11:15:00,75.5,50.1,25.96,NE,49,5.0,6.0,41,0.00,,,0.00,872,Wunderground v.1.15,2013-02-16 17:15:00,
2013-02-16 11:25:00,75.2,52.4,25.96,West,272,6.0,6.0,45,0.00,,,0.00,875,Wunderground v.1.15,2013-02-16 17:25:00,
2013-02-16 11:35:00,75.3,53.1,25.95,WSW,242,6.0,12.0,46,0.00,,,0.00,882,Wunderground v.1.15,2013-02-16 17:35:00,
2013-02-16 11:45:00,75.0,54.5,25.95,NNE,14,6.0,6.0,49,0.00,,,0.00,881,Wunderground v.1.15,2013-02-16 17:45:00,
2013-02-16 11:55:00,74.5,55.7,25.94,North,360,6.0,9.0,52,0.00,,,0.00,881,Wunderground v.1.15,2013-02-16 17:55:00,
2013-02-16 12:05:00,74.8,56.5,25.94,NNW,333,6.0,6.0,53,0.00,,,0.00,877,Wunderground v.1.15,2013-02-16 18:05:00,
2013-02-16 12:10:00,75.2,56.4,25.93,North,5,6.0,6.0,52,0.00,,,0.00,874,Wunderground v.1.15,2013-02-16 18:10:00,
2013-02-16 12:20:00,76.2,56.7,25.93,North,351,4.0,10.0,51,0.00,,,0.00,875,Wunderground v.1.15,2013-02-16 18:20:00,
2013-02-16 12:30:00,76.0,57.1,25.93,NNE,29,7.0,9.0,52,0.00,,,0.00,863,Wunderground v.1.15,2013-02-16 18:30:00,
2013-02-16 12:35:00,75.9,57.0,25.93,East,101,7.0,9.0,52,0.00,,,0.00,858,Wunderground v.1.15,2013-02-16 18:35:00,
2013-02-16 12:45:00,75.2,57.9,25.93,NNE,20,6.0,11.0,55,0.00,,,0.00,847,Wunderground v.1.15,2013-02-16 18:45:00,
2013-02-16 12:55:00,74.8,58.1,25.92,NNW,334,6.0,16.0,56,0.00,,,0.00,835,Wunderground v.1.15,2013-02-16 18:55:00,
2013-02-16 13:00:00,74.5,58.3,25.92,WNW,292,6.0,6.0,57,0.00,,,0.00,826,Wunderground v.1.15,2013-02-16 19:00:00,
2013-02-16 13:10:00,74.1,58.4,25.92,NNE,30,6.0,7.0,58,0.00,,,0.00,810,Wunderground v.1.15,2013-02-16 19:10:00,
2013-02-16 13:15:00,73.8,58.1,25.92,WSW,248,6.0,7.0,58,0.00,,,0.00,807,Wunderground v.1.15,2013-02-16 19:15:00,
2013-02-16 13:25:00,73.4,58.2,25.91,North,355,7.0,8.0,59,0.00,,,0.00,786,Wunderground v.1.15,2013-02-16 19:25:00,
2013-02-16 13:35:00,73.2,58.5,25.91,NE,37,6.0,12.0,60,0.00,,,0.00,766,Wunderground v.1.15,2013-02-16 19:35:00,
2013-02-16 13:45:00,73.1,58.8,25.91,ENE,57,6.0,6.0,61,0.00,,,0.00,744,Wunderground v.1.15,2013-02-16 19:45:00,
2013-02-16 13:55:00,72.7,58.5,25.91,NNE,28,6.0,8.0,61,0.00,,,0.00,721,Wunderground v.1.15,2013-02-16 19:55:00,
2013-02-16 14:00:00,73.1,58.4,25.90,North,10,6.0,8.0,60,0.00,,,0.00,708,Wunderground v.1.15,2013-02-16 20:00:00,
2013-02-16 14:10:00,72.2,58.9,25.90,ENE,67,6.0,6.0,63,0.00,,,0.00,679,Wunderground v.1.15,2013-02-16 20:10:00,
2013-02-16 14:20:00,71.5,58.2,25.90,NNW,340,6.0,7.0,63,0.00,,,0.00,650,Wunderground v.1.15,2013-02-16 20:20:00,
2013-02-16 14:30:00,71.2,58.4,25.90,SE,132,7.0,7.0,64,0.00,,,0.00,628,Wunderground v.1.15,2013-02-16 20:30:00,
2013-02-16 14:40:00,71.2,58.4,25.90,North,5,6.0,6.0,64,0.00,,,0.00,592,Wunderground v.1.15,2013-02-16 20:40:00,
2013-02-16 14:50:00,70.8,58.0,25.90,WNW,292,7.0,7.0,64,0.00,,,0.00,564,Wunderground v.1.15,2013-02-16 20:50:00,
2013-02-16 15:00:00,70.7,58.4,25.89,NNE,13,7.0,14.0,65,0.00,,,0.00,367,Wunderground v.1.15,2013-02-16 21:00:00,
2013-02-16 15:05:00,70.0,58.1,25.90,NE,49,7.0,14.0,66,0.00,,,0.00,522,Wunderground v.1.15,2013-02-16 21:05:00,
2013-02-16 15:15:00,70.7,58.4,25.90,NNW,332,6.0,10.0,65,0.00,,,0.00,469,Wunderground v.1.15,2013-02-16 21:15:00,
2013-02-16 15:25:00,70.2,58.7,25.90,SE,130,7.0,7.0,67,0.00,,,0.00,248,Wunderground v.1.15,2013-02-16 21:25:00,
2013-02-16 15:35:00,70.0,58.5,25.90,NE,37,6.0,6.0,67,0.00,,,0.00,427,Wunderground v.1.15,2013-02-16 21:35:00,
2013-02-16 15:40:00,70.2,58.7,25.90,NE,44,5.0,5.0,67,0.00,,,0.00,374,Wunderground v.1.15,2013-02-16 21:40:00,
2013-02-16 15:45:00,69.8,58.8,25.90,SW,222,6.0,7.0,68,0.00,,,0.00,374,Wunderground v.1.15,2013-02-16 21:45:00,
2013-02-16 15:55:00,69.3,58.7,25.90,North,5,6.0,6.0,69,0.00,,,0.00,339,Wunderground v.1.15,2013-02-16 21:55:00,
2013-02-16 16:00:00,69.5,58.5,25.91,ENE,67,5.0,5.0,68,0.00,,,0.00,330,Wunderground v.1.15,2013-02-16 22:00:00,
2013-02-16 16:10:00,68.7,58.5,25.91,SSE,151,6.0,6.0,70,0.00,,,0.00,276,Wunderground v.1.15,2013-02-16 22:10:00,
2013-02-16 16:15:00,68.5,58.3,25.91,NE,55,5.0,6.0,70,0.00,,,0.00,283,Wunderground v.1.15,2013-02-16 22:15:00,
2013-02-16 16:25:00,68.7,58.5,25.91,ESE,102,5.0,11.0,70,0.00,,,0.00,302,Wunderground v.1.15,2013-02-16 22:25:00,
2013-02-16 16:30:00,68.8,58.2,25.91,ESE,111,5.0,5.0,69,0.00,,,0.00,253,Wunderground v.1.15,2013-02-16 22:30:00,
2013-02-16 16:35:00,69.0,58.4,25.91,NE,38,5.0,5.0,69,0.00,,,0.00,239,Wunderground v.1.15,2013-02-16 22:35:00,
2013-02-16 16:45:00,68.3,58.5,25.91,NE,47,5.0,11.0,71,0.00,,,0.00,97,Wunderground v.1.15,2013-02-16 22:45:00,
2013-02-16 16:50:00,68.3,58.5,25.92,East,91,5.0,7.0,71,0.00,,,0.00,76,Wunderground v.1.15,2013-02-16 22:50:00,
2013-02-16 16:55:00,68.2,58.8,25.92,SE,146,4.0,7.0,72,0.00,,,0.00,76,Wunderground v.1.15,2013-02-16 22:55:00,
2013-02-16 17:05:00,68.0,58.6,25.92,ENE,61,4.0,4.0,72,0.00,,,0.00,72,Wunderground v.1.15,2013-02-16 23:05:00,
2013-02-16 17:15:00,68.3,58.5,25.93,NW,314,3.0,3.0,71,0.00,,,0.00,54,Wunderground v.1.15,2013-02-16 23:15:00,
2013-02-16 17:25:00,68.0,58.6,25.93,SSE,147,4.0,4.0,72,0.00,,,0.00,33,Wunderground v.1.15,2013-02-16 23:25:00,
2013-02-16 17:35:00,68.0,58.6,25.93,WNW,290,4.0,4.0,72,0.00,,,0.00,11,Wunderground v.1.15,2013-02-16 23:35:00,
2013-02-16 17:45:00,67.7,59.1,25.93,NE,41,3.0,4.0,74,0.00,,,0.00,0,Wunderground v.1.15,2013-02-16 23:45:00,
2013-02-16 17:55:00,66.8,59.0,25.93,North,9,3.0,6.0,76,0.00,,,0.00,0,Wunderground v.1.15,2013-02-16 23:55:00,
2013-02-16 18:00:00,66.7,59.3,25.93,NE,49,3.0,8.0,77,0.00,,,0.00,0,Wunderground v.1.15,2013-02-17 00:00:00,
2013-02-16 18:05:00,66.5,59.1,25.93,NNE,18,3.0,8.0,77,0.00,,,0.00,0,Wunderground v.1.15,2013-02-17 00:05:00,
2013-02-16 18:15:00,66.5,59.1,25.94,ESE,108,1.0,2.0,77,0.00,,,0.00,0,Wunderground v.1.15,2013-02-17 00:15:00,
2013-02-16 18:25:00,66.8,59.0,25.94,WNW,284,1.0,4.0,76,0.00,,,0.00,0,Wunderground v.1.15,2013-02-17 00:25:00,
2013-02-16 18:30:00,67.0,59.2,25.94,NNW,335,2.0,2.0,76,0.00,,,0.00,0,Wunderground v.1.15,2013-02-17 00:30:00,
2013-02-16 18:40:00,66.8,59.0,25.95,SSW,213,3.0,3.0,76,0.00,,,0.00,0,Wunderground v.1.15,2013-02-17 00:40:00,
2013-02-16 18:45:00,66.7,59.3,25.95,WNW,294,3.0,4.0,77,0.00,,,0.00,0,Wunderground v.1.15,2013-02-17 00:45:00,
2013-02-16 18:55:00,66.7,59.3,25.96,NE,51,3.0,3.0,77,0.00,,,0.00,0,Wunderground v.1.15,2013-02-17 00:55:00,
2013-02-16 19:05:00,66.5,59.1,25.96,South,169,3.0,5.0,77,0.00,,,0.00,0,Wunderground v.1.15,2013-02-17 01:05:00,
2013-02-16 19:15:00,66.5,59.1,25.96,North,355,2.0,4.0,77,0.00,,,0.00,0,Wunderground v.1.15,2013-02-17 01:15:00,
2013-02-16 19:20:00,66.3,58.9,25.96,ENE,64,2.0,3.0,77,0.00,,,0.00,0,Wunderground v.1.15,2013-02-17 01:20:00,
2013-02-16 19:30:00,66.0,58.6,25.97,ESE,112,3.0,3.0,77,0.00,,,0.00,0,Wunderground v.1.15,2013-02-17 01:30:00,
2013-02-16 19:40:00,65.7,58.7,25.98,South,188,4.0,4.0,78,0.00,,,0.00,0,Wunderground v.1.15,2013-02-17 01:40:00,
2013-02-16 19:45:00,65.4,58.7,25.98,NNW,329,5.0,8.0,79,0.00,,,0.00,0,Wunderground v.1.15,2013-02-17 01:45:00,
2013-02-16 19:55:00,64.9,58.6,25.99,ENE,62,4.0,4.0,80,0.00,,,0.00,0,Wunderground v.1.15,2013-02-17 01:55:00,
2013-02-16 20:00:00,64.7,58.0,25.99,SSE,167,3.0,3.0,79,0.00,,,0.00,0,Wunderground v.1.15,2013-02-17 02:00:00,
2013-02-16 20:10:00,64.6,57.9,25.99,North,5,4.0,6.0,79,0.00,,,0.00,0,Wunderground v.1.15,2013-02-17 02:10:00,
2013-02-16 20:15:00,64.4,58.1,26.00,NNW,331,5.0,6.0,80,0.00,,,0.00,0,Wunderground v.1.15,2013-02-17 02:15:00,
2013-02-16 20:25:00,63.8,58.2,26.00,NNE,22,5.0,10.0,82,0.00,,,0.00,0,Wunderground v.1.15,2013-02-17 02:25:00,
2013-02-16 20:30:00,63.9,58.0,26.00,SE,141,5.0,5.0,81,0.00,,,0.00,0,Wunderground v.1.15,2013-02-17 02:30:00,
2013-02-16 20:40:00,64.1,57.8,26.00,SSE,153,4.0,7.0,80,0.00,,,0.00,0,Wunderground v.1.15,2013-02-17 02:40:00,
2013-02-16 20:45:00,64.1,57.5,26.00,NNW,331,4.0,7.0,79,0.00,,,0.00,0,Wunderground v.1.15,2013-02-17 02:45:00,
2013-02-16 20:55:00,64.1,57.5,26.00,NE,51,3.0,4.0,79,0.00,,,0.00,0,Wunderground v.1.15,2013-02-17 02:55:00,
2013-02-16 21:05:00,64.1,57.5,26.01,ESE,108,5.0,8.0,79,0.00,,,0.00,0,Wunderground v.1.15,2013-02-17 03:05:00,
2013-02-16 21:10:00,64.1,57.5,26.01,ESE,111,5.0,11.0,79,0.00,,,0.00,0,Wunderground v.1.15,2013-02-17 03:10:00,
2013-02-16 21:15:00,64.1,57.1,26.01,NNW,328,5.0,11.0,78,0.00,,,0.00,0,Wunderground v.1.15,2013-02-17 03:15:00,
2013-02-16 21:25:00,64.2,56.5,26.02,SW,223,4.0,5.0,76,0.00,,,0.00,0,Wunderground v.1.15,2013-02-17 03:25:00,
2013-02-16 21:30:00,64.4,56.7,26.02,SSW,207,3.0,3.0,76,0.00,,,0.00,0,Wunderground v.1.15,2013-02-17 03:30:00,
2013-02-16 21:35:00,64.6,56.5,26.02,East,94,3.0,5.0,75,0.00,,,0.00,0,Wunderground v.1.15,2013-02-17 03:35:00,
2013-02-16 21:45:00,64.7,56.6,26.02,North,360,3.0,6.0,75,0.00,,,0.00,0,Wunderground v.1.15,2013-02-17 03:45:00,
2013-02-16 21:50:00,64.7,56.6,26.02,East,88,2.0,3.0,75,0.00,,,0.00,0,Wunderground v.1.15,2013-02-17 03:50:00,
2013-02-16 21:55:00,64.7,56.2,26.02,East,84,3.0,4.0,74,0.00,,,0.00,0,Wunderground v.1.15,2013-02-17 03:55:00,
2013-02-16 22:00:00,64.7,56.2,26.02,SE,146,5.0,5.0,74,0.00,,,0.00,0,Wunderground v.1.15,2013-02-17 04:00:00,
2013-02-16 22:10:00,64.9,56.4,26.02,SE,141,2.0,6.0,74,0.00,,,0.00,0,Wunderground v.1.15,2013-02-17 04:10:00,
2013-02-16 22:15:00,65.1,56.2,26.03,ENE,71,3.0,6.0,73,0.00,,,0.00,0,Wunderground v.1.15,2013-02-17 04:15:00,
2013-02-16 22:25:00,65.2,55.9,26.02,South,173,2.0,4.0,72,0.00,,,0.00,0,Wunderground v.1.15,2013-02-17 04:25:00,
2013-02-16 22:35:00,65.2,55.6,26.02,SSE,148,3.0,4.0,71,0.00,,,0.00,0,Wunderground v.1.15,2013-02-17 04:35:00,
2013-02-16 22:45:00,64.9,55.7,26.01,SSE,166,3.0,7.0,72,0.00,,,0.00,0,Wunderground v.1.15,2013-02-17 04:45:00,
2013-02-16 22:50:00,64.9,55.7,26.02,SE,144,3.0,3.0,72,0.00,,,0.00,0,Wunderground v.1.15,2013-02-17 04:50:00,
2013-02-16 23:00:00,64.7,55.5,26.02,East,94,0.0,0.0,72,0.00,,,0.00,0,Wunderground v.1.15,2013-02-17 05:00:00,
2013-02-16 23:05:00,64.7,55.5,26.01,ENE,72,1.0,3.0,72,0.00,,,0.00,0,Wunderground v.1.15,2013-02-17 05:05:00,
2013-02-16 23:10:00,64.4,55.6,26.02,East,90,2.0,5.0,73,0.00,,,0.00,0,Wunderground v.1.15,2013-02-17 05:10:00,
2013-02-16 23:15:00,64.2,55.7,26.02,SE,138,2.0,5.0,74,0.00,,,0.00,0,Wunderground v.1.15,2013-02-17 05:15:00,
2013-02-16 23:25:00,64.4,55.6,26.01,SE,146,2.0,4.0,73,0.00,,,0.00,0,Wunderground v.1.15,2013-02-17 05:25:00,
2013-02-16 23:30:00,64.4,55.2,26.01,SSE,150,2.0,2.0,72,0.00,,,0.00,0,Wunderground v.1.15,2013-02-17 05:30:00,
2013-02-16 23:35:00,64.4,55.2,26.01,East,98,2.0,2.0,72,0.00,,,0.00,0,Wunderground v.1.15,2013-02-17 05:35:00,
2013-02-16 23:45:00,64.2,55.0,26.01,ESE,117,1.0,3.0,72,0.00,,,0.00,0,Wunderground v.1.15,2013-02-17 05:45:00,
2013-02-16 23:50:00,64.2,56.1,26.01,ESE,119,1.0,1.0,75,0.00,,,0.00,0,Wunderground v.1.15,2013-02-17 05:50:00,